createdAt,value
2019-02-28T00:00:32.228Z,34.33
2019-02-28T00:01:32.279Z,34.64
2019-02-28T00:02:32.237Z,34.25
2019-02-28T00:03:32.217Z,34.23
2019-02-28T00:04:32.958Z,34.43
2019-02-28T00:05:32.199Z,34.33
2019-02-28T00:06:32.188Z,34.43
2019-02-28T00:07:32.209Z,34.23
2019-02-28T00:08:32.151Z,34.33
2019-02-28T00:09:32.202Z,34.23
2019-02-28T00:10:32.134Z,34.33
2019-02-28T00:11:32.121Z,34.44
2019-02-28T00:12:32.120Z,34.55
2019-02-28T00:13:32.117Z,34.23
2019-02-28T00:14:32.086Z,34.23
2019-02-28T00:15:32.078Z,34.53
2019-02-28T00:16:32.075Z,34.55
2019-02-28T00:17:32.099Z,34.23
2019-02-28T00:18:32.047Z,34.44
2019-02-28T00:19:32.028Z,34.23
2019-02-28T00:20:32.637Z,34.23
2019-02-28T00:21:32.022Z,33.43
2019-02-28T00:22:32.022Z,34.53
2019-02-28T00:23:32.010Z,34.03
2019-02-28T00:24:31.977Z,34.05
2019-02-28T00:25:31.992Z,34.13
2019-02-28T00:26:31.961Z,34.13
2019-02-28T00:27:31.977Z,34.53
2019-02-28T00:28:31.961Z,34.55
2019-02-28T00:29:33.760Z,34.03
2019-02-28T00:30:31.915Z,34.64
2019-02-28T00:31:31.916Z,34.03
2019-02-28T00:32:31.892Z,33.63
2019-02-28T00:33:31.917Z,34.64
2019-02-28T00:34:31.875Z,33.63
2019-02-28T00:35:31.870Z,34.14
2019-02-28T00:36:31.863Z,34.63
2019-02-28T00:37:31.847Z,34.43
2019-02-28T00:38:31.855Z,34.44
2019-02-28T00:39:34.909Z,33.65
2019-02-28T00:40:31.813Z,33.63
2019-02-28T00:41:31.800Z,33.84
2019-02-28T00:42:31.822Z,34.43
2019-02-28T00:43:31.808Z,34.34
2019-02-28T00:44:31.798Z,34.44
2019-02-28T00:45:36.340Z,33.63
2019-02-28T00:46:31.756Z,33.65
2019-02-28T00:47:31.749Z,34.44
2019-02-28T00:48:31.752Z,33.63
2019-02-28T00:49:31.717Z,33.45
2019-02-28T00:50:31.711Z,33.63
2019-02-28T00:51:31.721Z,34.44
2019-02-28T00:52:32.102Z,34.25
2019-02-28T00:53:31.691Z,34.44
2019-02-28T00:54:31.670Z,34.44
2019-02-28T00:55:31.659Z,33.25
2019-02-28T00:56:31.651Z,33.45
2019-02-28T00:57:31.634Z,34.75
2019-02-28T00:58:31.714Z,33.25
2019-02-28T00:59:31.883Z,34.25
2019-02-28T01:00:31.618Z,34.55
2019-02-28T01:01:31.596Z,34.34
2019-02-28T01:02:31.589Z,34.55
2019-02-28T01:03:31.647Z,33.25
2019-02-28T01:04:31.562Z,34.25
2019-02-28T01:05:31.558Z,34.14
2019-02-28T01:06:31.534Z,34.14
2019-02-28T01:07:31.527Z,33.65
2019-02-28T01:08:31.533Z,34.25
2019-02-28T01:09:31.524Z,33.84
2019-02-28T01:10:31.497Z,34.34
2019-02-28T01:11:31.482Z,34.34
2019-02-28T01:12:31.470Z,34.55
2019-02-28T01:13:31.491Z,33.84
2019-02-28T01:14:32.446Z,33.84
2019-02-28T01:15:31.449Z,33.25
2019-02-28T01:16:31.426Z,33.84
2019-02-28T01:17:31.422Z,33.45
2019-02-28T01:18:34.450Z,33.75
2019-02-28T01:19:31.407Z,33.84
2019-02-28T01:20:31.403Z,33.54
2019-02-28T01:21:31.375Z,33.45
2019-02-28T01:22:31.367Z,34.34
2019-02-28T01:23:31.384Z,34.14
2019-02-28T01:24:34.497Z,33.54
2019-02-28T01:25:31.328Z,33.95
2019-02-28T01:26:31.338Z,33.54
2019-02-28T01:27:31.315Z,34.16
2019-02-28T01:28:31.323Z,33.84
2019-02-28T01:29:32.935Z,34.14
2019-02-28T01:30:31.312Z,34.55
2019-02-28T01:31:31.275Z,33.84
2019-02-28T01:32:31.266Z,33.47
2019-02-28T01:33:31.281Z,33.86
2019-02-28T01:34:32.319Z,33.76
2019-02-28T01:35:31.231Z,33.75
2019-02-28T01:36:31.217Z,33.65
2019-02-28T01:37:31.215Z,33.86
2019-02-28T01:38:31.214Z,33.75
2019-02-28T01:39:31.189Z,33.75
2019-02-28T01:40:31.195Z,33.95
2019-02-28T01:41:31.184Z,33.76
2019-02-28T01:42:31.155Z,34.05
2019-02-28T01:43:31.179Z,33.26
2019-02-28T01:44:35.566Z,33.95
2019-02-28T01:45:31.124Z,33.96
2019-02-28T01:46:31.114Z,33.96
2019-02-28T01:47:31.125Z,34.06
2019-02-28T01:48:31.137Z,33.86
2019-02-28T01:49:31.079Z,33.86
2019-02-28T01:50:31.083Z,33.76
2019-02-28T01:51:35.726Z,33.96
2019-02-28T01:52:31.067Z,34.06
2019-02-28T01:53:31.066Z,34.06
2019-02-28T01:54:31.070Z,33.86
2019-02-28T01:55:31.080Z,33.76
2019-02-28T01:56:31.010Z,33.56
2019-02-28T01:57:31.008Z,34.06
2019-02-28T01:58:31.371Z,33.96
2019-02-28T01:59:30.992Z,33.86
2019-02-28T02:00:30.965Z,33.96
2019-02-28T02:01:31.659Z,33.96
2019-02-28T02:02:30.992Z,33.96
2019-02-28T02:03:30.958Z,33.96
2019-02-28T02:04:30.927Z,33.96
2019-02-28T02:05:30.934Z,33.76
2019-02-28T02:06:30.908Z,33.96
2019-02-28T02:07:33.348Z,34.06
2019-02-28T02:08:30.874Z,33.96
2019-02-28T02:09:30.886Z,34.06
2019-02-28T02:10:30.857Z,33.96
2019-02-28T02:11:30.942Z,33.96
2019-02-28T02:12:31.789Z,33.96
2019-02-28T02:13:30.860Z,34.06
2019-02-28T02:14:30.824Z,34.16
2019-02-28T02:15:30.813Z,33.96
2019-02-28T02:16:30.791Z,34.06
2019-02-28T02:17:32.312Z,34.06
2019-02-28T02:18:30.783Z,34.16
2019-02-28T02:19:30.784Z,34.16
2019-02-28T02:20:30.825Z,34.16
2019-02-28T02:21:31.467Z,33.96
2019-02-28T02:22:30.730Z,34.06
2019-02-28T02:23:30.722Z,33.96
2019-02-28T02:24:30.730Z,34.06
2019-02-28T02:25:30.699Z,34.16
2019-02-28T02:26:30.689Z,34.16
2019-02-28T02:27:30.674Z,33.86
2019-02-28T02:28:30.680Z,33.86
2019-02-28T02:29:32.491Z,33.96
2019-02-28T02:30:30.658Z,34.06
2019-02-28T02:31:30.648Z,34.06
2019-02-28T02:32:37.272Z,34.16
2019-02-28T02:33:30.615Z,34.66
2019-02-28T02:34:30.631Z,34.16
2019-02-28T02:35:30.616Z,34.06
2019-02-28T02:36:30.594Z,33.86
2019-02-28T02:37:31.406Z,33.86
2019-02-28T02:38:30.562Z,34.56
2019-02-28T02:39:30.565Z,33.86
2019-02-28T02:40:30.546Z,34.18
2019-02-28T02:41:33.353Z,34.26
2019-02-28T02:42:30.525Z,33.86
2019-02-28T02:43:30.502Z,34.18
2019-02-28T02:44:31.996Z,34.56
2019-02-28T02:45:30.496Z,34.06
2019-02-28T02:46:30.510Z,33.96
2019-02-28T02:47:32.452Z,33.76
2019-02-28T02:48:30.473Z,34.18
2019-02-28T02:49:30.460Z,34.08
2019-02-28T02:50:35.850Z,34.46
2019-02-28T02:51:30.430Z,34.08
2019-02-28T02:52:30.652Z,34.18
2019-02-28T02:53:30.420Z,33.96
2019-02-28T02:54:30.415Z,34.06
2019-02-28T02:55:30.379Z,34.06
2019-02-28T02:56:30.384Z,33.78
2019-02-28T02:57:30.407Z,33.96
2019-02-28T02:58:30.353Z,34.06
2019-02-28T02:59:37.558Z,34.08
2019-02-28T03:00:30.330Z,34.18
2019-02-28T03:01:30.314Z,33.98
2019-02-28T03:02:33.278Z,33.98
2019-02-28T03:03:30.314Z,33.78
2019-02-28T03:04:30.301Z,34.38
2019-02-28T03:05:34.972Z,34.08
2019-02-28T03:06:30.269Z,33.98
2019-02-28T03:07:30.310Z,33.58
2019-02-28T03:08:35.723Z,34.38
2019-02-28T03:09:30.325Z,34.48
2019-02-28T03:10:30.219Z,34.38
2019-02-28T03:11:30.225Z,33.98
2019-02-28T03:12:31.578Z,33.98
2019-02-28T03:13:30.214Z,34.08
2019-02-28T03:14:30.209Z,34.08
2019-02-28T03:15:30.183Z,34.48
2019-02-28T03:16:32.948Z,34.08
2019-02-28T03:17:30.149Z,34.08
2019-02-28T03:18:30.130Z,33.58
2019-02-28T03:19:33.548Z,33.98
2019-02-28T03:20:30.137Z,33.88
2019-02-28T03:21:30.111Z,34.18
2019-02-28T03:22:30.403Z,33.98
2019-02-28T03:23:30.088Z,34.38
2019-02-28T03:24:30.089Z,34.48
2019-02-28T03:25:30.087Z,34.38
2019-02-28T03:26:30.044Z,34.36
2019-02-28T03:27:30.045Z,33.56
2019-02-28T03:28:32.189Z,34.38
2019-02-28T03:29:30.052Z,34.36
2019-02-28T03:30:32.759Z,33.58
2019-02-28T03:31:29.991Z,33.56
2019-02-28T03:32:39.796Z,33.56
2019-02-28T03:33:30.011Z,33.86
2019-02-28T03:34:29.991Z,33.76
2019-02-28T03:35:40.587Z,34.36
2019-02-28T03:36:29.944Z,34.16
2019-02-28T03:37:33.243Z,34.16
2019-02-28T03:38:29.954Z,33.56
2019-02-28T03:39:29.919Z,33.66
2019-02-28T03:40:29.915Z,33.56
2019-02-28T03:41:29.889Z,33.47
2019-02-28T03:42:30.151Z,33.47
2019-02-28T03:43:29.872Z,33.66
2019-02-28T03:44:29.853Z,33.86
2019-02-28T03:45:34.190Z,32.95
2019-02-28T03:46:29.866Z,33.47
2019-02-28T03:47:29.827Z,32.97
2019-02-28T03:48:34.665Z,33.56
2019-02-28T03:49:29.804Z,33.65
2019-02-28T03:50:29.813Z,33.54
2019-02-28T03:51:29.781Z,33.25
2019-02-28T03:52:29.779Z,33.25
2019-02-28T03:53:29.777Z,33.15
2019-02-28T03:54:30.160Z,33.54
2019-02-28T03:55:29.768Z,32.45
2019-02-28T03:56:29.755Z,32.25
2019-02-28T03:57:29.738Z,32.55
2019-02-28T03:58:29.711Z,32.45
2019-02-28T03:59:29.700Z,32.65
2019-02-28T04:00:33.916Z,32.55
2019-02-28T04:01:29.682Z,32.55
2019-02-28T04:02:29.709Z,33.25
2019-02-28T04:03:33.481Z,32.95
2019-02-28T04:04:29.682Z,32.95
2019-02-28T04:05:29.646Z,32.85
2019-02-28T04:06:29.657Z,33.04
2019-02-28T04:07:29.608Z,33.45
2019-02-28T04:08:30.780Z,32.73
2019-02-28T04:09:29.610Z,33.25
2019-02-28T04:10:29.620Z,32.83
2019-02-28T04:11:31.180Z,33.25
2019-02-28T04:12:29.610Z,32.85
2019-02-28T04:13:29.542Z,33.03
2019-02-28T04:14:32.997Z,33.03
2019-02-28T04:15:29.584Z,33.13
2019-02-28T04:16:29.521Z,32.83
2019-02-28T04:17:30.451Z,32.83
2019-02-28T04:18:29.557Z,33.15
2019-02-28T04:19:29.503Z,33.13
2019-02-28T04:20:35.939Z,32.85
2019-02-28T04:21:29.473Z,33.45
2019-02-28T04:22:29.473Z,33.13
2019-02-28T04:23:35.659Z,32.95
2019-02-28T04:24:29.452Z,32.73
2019-02-28T04:25:29.434Z,33.04
2019-02-28T04:26:30.053Z,32.93
2019-02-28T04:27:29.401Z,32.95
2019-02-28T04:28:29.391Z,32.93
2019-02-28T04:29:31.118Z,32.93
2019-02-28T04:30:29.382Z,32.75
2019-02-28T04:31:29.373Z,32.93
2019-02-28T04:32:29.346Z,32.93
2019-02-28T04:33:29.346Z,33.43
2019-02-28T04:34:29.324Z,32.93
2019-02-28T04:35:29.348Z,33.03
2019-02-28T04:36:35.404Z,33.43
2019-02-28T04:37:29.290Z,33.03
2019-02-28T04:38:29.294Z,33.43
2019-02-28T04:39:29.289Z,33.43
2019-02-28T04:40:29.283Z,33.13
2019-02-28T04:41:32.526Z,33.03
2019-02-28T04:42:29.237Z,32.73
2019-02-28T04:43:29.224Z,33.15
2019-02-28T04:44:29.224Z,33.03
2019-02-28T04:45:29.225Z,32.93
2019-02-28T04:46:31.892Z,33.03
2019-02-28T04:47:29.194Z,33.15
2019-02-28T04:48:29.184Z,33.13
2019-02-28T04:49:29.190Z,33.43
2019-02-28T04:50:32.141Z,33.13
2019-02-28T04:51:29.174Z,33.03
2019-02-28T04:52:29.131Z,32.75
2019-02-28T04:53:29.121Z,33.25
2019-02-28T04:54:29.113Z,33.04
2019-02-28T04:55:30.644Z,33.33
2019-02-28T04:56:29.099Z,33.03
2019-02-28T04:57:29.078Z,33.13
2019-02-28T04:58:29.071Z,33.45
2019-02-28T04:59:31.540Z,33.33
2019-02-28T05:00:29.062Z,33.35
2019-02-28T05:01:29.031Z,33.13
2019-02-28T05:02:29.036Z,33.23
2019-02-28T05:03:29.194Z,33.43
2019-02-28T05:04:29.004Z,33.23
2019-02-28T05:05:28.996Z,33.33
2019-02-28T05:06:29.001Z,33.33
2019-02-28T05:07:29.637Z,33.03
2019-02-28T05:08:28.971Z,33.63
2019-02-28T05:09:28.950Z,33.03
2019-02-28T05:10:28.978Z,33.13
2019-02-28T05:11:30.716Z,33.13
2019-02-28T05:12:28.918Z,33.13
2019-02-28T05:13:28.911Z,32.93
2019-02-28T05:14:28.899Z,33.13
2019-02-28T05:15:28.897Z,33.53
2019-02-28T05:16:28.910Z,33.33
2019-02-28T05:17:28.885Z,33.13
2019-02-28T05:18:28.876Z,33.13
2019-02-28T05:19:28.846Z,33.13
2019-02-28T05:20:28.846Z,33.13
2019-02-28T05:21:28.839Z,32.93
2019-02-28T05:22:28.841Z,32.93
2019-02-28T05:23:28.805Z,32.93
2019-02-28T05:24:28.811Z,33.03
2019-02-28T05:25:28.787Z,32.93
2019-02-28T05:26:28.783Z,32.83
2019-02-28T05:27:34.818Z,32.83
2019-02-28T05:28:28.748Z,33.13
2019-02-28T05:29:28.758Z,32.93
2019-02-28T05:30:28.742Z,33.23
2019-02-28T05:31:28.731Z,33.13
2019-02-28T05:32:28.705Z,32.93
2019-02-28T05:33:28.697Z,32.93
2019-02-28T05:34:28.701Z,33.03
2019-02-28T05:35:28.671Z,33.13
2019-02-28T05:36:28.691Z,32.93
2019-02-28T05:37:28.659Z,33.13
2019-02-28T05:38:28.652Z,33.03
2019-02-28T05:39:30.975Z,33.15
2019-02-28T05:40:28.614Z,33.13
2019-02-28T05:41:28.635Z,33.45
2019-02-28T05:42:28.604Z,33.54
2019-02-28T05:43:29.314Z,33.23
2019-02-28T05:44:28.589Z,33.15
2019-02-28T05:45:28.576Z,33.33
2019-02-28T05:46:28.583Z,33.35
2019-02-28T05:47:29.463Z,33.25
2019-02-28T05:48:28.569Z,33.35
2019-02-28T05:49:28.541Z,33.35
2019-02-28T05:50:28.529Z,33.04
2019-02-28T05:51:28.530Z,33.23
2019-02-28T05:52:30.518Z,33.45
2019-02-28T05:53:28.554Z,33.45
2019-02-28T05:54:28.492Z,33.35
2019-02-28T05:55:28.475Z,33.15
2019-02-28T05:56:32.859Z,33.25
2019-02-28T05:57:28.457Z,31.45
2019-02-28T05:58:28.436Z,30.95
2019-02-28T05:59:28.453Z,30.45
2019-02-28T06:00:28.473Z,30.45
2019-02-28T06:01:28.413Z,29.17
2019-02-28T06:02:28.417Z,28.77
2019-02-28T06:03:29.501Z,28.98
2019-02-28T06:04:28.366Z,29.18
2019-02-28T06:05:28.388Z,29.08
2019-02-28T06:06:28.373Z,28.68
2019-02-28T06:07:28.692Z,28.89
2019-02-28T06:08:28.360Z,28.50
2019-02-28T06:09:28.325Z,29.10
2019-02-28T06:10:28.319Z,28.80
2019-02-28T06:11:31.393Z,29.19
2019-02-28T06:12:28.302Z,28.81
2019-02-28T06:13:28.281Z,28.71
2019-02-28T06:14:28.272Z,29.31
2019-02-28T06:15:28.996Z,28.91
2019-02-28T06:16:28.261Z,28.81
2019-02-28T06:17:28.229Z,29.71
2019-02-28T06:18:32.546Z,29.62
2019-02-28T06:19:28.207Z,29.93
2019-02-28T06:20:28.200Z,30.22
2019-02-28T06:21:28.204Z,29.52
2019-02-28T06:22:31.076Z,29.62
2019-02-28T06:23:28.165Z,29.62
2019-02-28T06:24:28.148Z,29.43
2019-02-28T06:25:28.154Z,29.72
2019-02-28T06:26:28.153Z,29.43
2019-02-28T06:27:28.147Z,29.52
2019-02-28T06:28:31.131Z,30.22
2019-02-28T06:29:28.111Z,30.82
2019-02-28T06:30:28.116Z,30.32
2019-02-28T06:31:28.254Z,30.12
2019-02-28T06:32:28.133Z,30.12
2019-02-28T06:33:30.698Z,30.11
2019-02-28T06:34:28.081Z,30.11
2019-02-28T06:35:28.062Z,30.11
2019-02-28T06:36:29.306Z,30.31
2019-02-28T06:37:28.078Z,30.11
2019-02-28T06:38:28.408Z,30.31
2019-02-28T06:39:28.006Z,30.11
2019-02-28T06:40:32.646Z,30.11
2019-02-28T06:41:28.004Z,30.41
2019-02-28T06:42:28.006Z,30.11
2019-02-28T06:43:27.967Z,30.01
2019-02-28T06:44:28.023Z,30.51
2019-02-28T06:45:27.980Z,30.31
2019-02-28T06:46:27.946Z,30.41
2019-02-28T06:47:28.030Z,31.10
2019-02-28T06:48:28.086Z,30.99
2019-02-28T06:49:27.890Z,31.49
2019-02-28T06:50:27.871Z,31.49
2019-02-28T06:51:27.875Z,31.70
2019-02-28T06:52:27.875Z,31.59
2019-02-28T06:53:30.794Z,31.49
2019-02-28T06:54:27.850Z,31.29
2019-02-28T06:55:27.852Z,30.40
2019-02-28T06:56:27.829Z,31.20
2019-02-28T06:57:27.828Z,31.59
2019-02-28T06:58:30.472Z,33.29
2019-02-28T06:59:27.778Z,34.09
2019-02-28T07:00:27.781Z,33.89
2019-02-28T07:01:29.594Z,34.09
2019-02-28T07:02:28.572Z,34.09
2019-02-28T07:03:27.763Z,34.09
2019-02-28T07:04:27.733Z,34.09
2019-02-28T07:05:27.711Z,33.80
2019-02-28T07:06:27.732Z,34.19
2019-02-28T07:07:27.749Z,34.09
2019-02-28T07:08:28.957Z,34.09
2019-02-28T07:09:27.675Z,34.19
2019-02-28T07:10:27.914Z,34.19
2019-02-28T07:11:28.686Z,34.19
2019-02-28T07:12:29.821Z,34.00
2019-02-28T07:13:27.655Z,34.59
2019-02-28T07:14:27.636Z,34.18
2019-02-28T07:15:27.640Z,33.80
2019-02-28T07:20:53.083Z,34.39
2019-02-28T07:22:09.490Z,34.09
2019-02-28T07:22:55.533Z,34.30
2019-02-28T07:24:49.131Z,34.09
2019-02-28T07:25:12.761Z,33.98
2019-02-28T07:26:20.209Z,33.88
2019-02-28T07:27:10.969Z,33.88
2019-02-28T07:29:19.278Z,34.38
2019-02-28T07:32:08.118Z,34.08
2019-02-28T07:32:55.364Z,33.78
2019-02-28T07:33:55.294Z,34.28
2019-02-28T07:34:58.166Z,33.98
2019-02-28T07:36:19.033Z,34.18
2019-02-28T07:37:10.107Z,33.98
2019-02-28T07:39:33.110Z,33.78
2019-02-28T07:40:08.024Z,33.98
2019-02-28T07:41:46.075Z,33.78
2019-02-28T07:42:11.085Z,33.98
2019-02-28T07:43:03.014Z,34.48
2019-02-28T07:44:04.012Z,33.78
2019-02-28T07:44:58.073Z,33.48
2019-02-28T07:46:44.040Z,33.78
2019-02-28T07:53:53.314Z,34.08
2019-02-28T07:54:55.785Z,34.18
2019-02-28T07:55:54.259Z,33.98
2019-02-28T07:56:54.258Z,33.78
2019-02-28T07:57:56.411Z,33.88
2019-02-28T07:58:54.234Z,33.80
2019-02-28T07:59:54.248Z,34.00
2019-02-28T08:00:54.224Z,34.50
2019-02-28T08:01:54.194Z,34.28
2019-02-28T08:02:54.269Z,33.78
2019-02-28T08:03:54.207Z,34.19
2019-02-28T08:04:55.505Z,34.30
2019-02-28T08:05:54.148Z,33.98
2019-02-28T08:06:54.880Z,33.98
2019-02-28T08:07:54.139Z,33.98
2019-02-28T08:08:54.203Z,33.98
2019-02-28T08:09:54.111Z,34.19
2019-02-28T08:10:54.114Z,34.39
2019-02-28T08:11:55.468Z,33.98
2019-02-28T08:12:54.077Z,33.20
2019-02-28T08:13:55.536Z,33.50
2019-02-28T08:14:54.084Z,32.89
2019-02-28T08:15:56.890Z,31.79
2019-02-28T08:16:54.031Z,33.09
2019-02-28T08:17:54.021Z,33.29
2019-02-28T08:18:54.035Z,31.70
2019-02-28T08:19:54.013Z,32.29
2019-02-28T08:20:53.996Z,32.21
2019-02-28T08:21:53.981Z,31.71
2019-02-28T08:22:56.497Z,31.01
2019-02-28T08:23:53.959Z,31.59
2019-02-28T08:24:53.948Z,31.41
2019-02-28T08:25:53.946Z,31.21
2019-02-28T08:26:54.294Z,31.51
2019-02-28T08:27:59.229Z,31.51
2019-02-28T08:28:54.192Z,30.91
2019-02-28T08:29:53.894Z,31.21
2019-02-28T08:30:55.352Z,30.91
2019-02-28T08:31:53.876Z,31.41
2019-02-28T08:32:53.983Z,32.12
2019-02-28T08:33:53.852Z,32.32
2019-02-28T08:34:55.516Z,31.73
2019-02-28T08:35:54.138Z,33.23
2019-02-28T08:36:53.924Z,33.53
2019-02-28T08:37:57.004Z,32.93
2019-02-28T08:38:53.818Z,32.73
2019-02-28T08:39:53.809Z,33.73
2019-02-28T08:40:53.793Z,33.93
2019-02-28T08:41:53.772Z,34.33
2019-02-28T08:42:53.768Z,34.73
2019-02-28T08:43:53.745Z,34.51
2019-02-28T08:44:58.094Z,34.91
2019-02-28T08:45:53.727Z,35.71
2019-02-28T08:46:53.714Z,36.11
2019-02-28T08:47:56.759Z,35.91
2019-02-28T08:48:53.716Z,36.51
2019-02-28T08:49:53.701Z,36.21
2019-02-28T08:50:55.761Z,35.71
2019-02-28T08:51:53.729Z,35.71
2019-02-28T08:52:53.648Z,35.81
2019-02-28T08:53:53.675Z,35.69
2019-02-28T08:54:53.647Z,35.89
2019-02-28T08:55:53.642Z,35.69
2019-02-28T08:56:53.603Z,35.99
2019-02-28T08:57:56.926Z,36.19
2019-02-28T08:58:53.591Z,36.19
2019-02-28T08:59:56.319Z,35.99
2019-02-28T09:00:53.566Z,36.60
2019-02-28T09:01:53.557Z,35.80
2019-02-28T09:02:53.832Z,35.39
2019-02-28T09:03:53.539Z,35.69
2019-02-28T09:04:53.533Z,35.58
2019-02-28T09:05:53.508Z,35.99
2019-02-28T09:06:54.703Z,35.99
2019-02-28T09:07:53.508Z,36.08
2019-02-28T09:08:53.476Z,35.80
2019-02-28T09:09:53.547Z,35.68
2019-02-28T09:10:53.454Z,35.48
2019-02-28T09:11:57.896Z,35.48
2019-02-28T09:12:53.438Z,35.68
2019-02-28T09:13:53.436Z,35.68
2019-02-28T09:14:55.431Z,35.18
2019-02-28T09:15:53.950Z,35.58
2019-02-28T09:16:53.393Z,35.58
2019-02-28T09:17:58.256Z,35.78
2019-02-28T09:18:53.385Z,35.78
2019-02-28T09:19:53.389Z,35.78
2019-02-28T09:20:53.362Z,35.48
2019-02-28T09:21:53.751Z,35.68
2019-02-28T09:22:53.336Z,35.28
2019-02-28T09:23:53.331Z,35.58
2019-02-28T09:24:53.339Z,35.28
2019-02-28T09:25:56.439Z,35.38
2019-02-28T09:26:53.289Z,35.58
2019-02-28T09:27:53.287Z,35.38
2019-02-28T09:28:53.304Z,35.28
2019-02-28T09:29:54.831Z,35.98
2019-02-28T09:30:53.253Z,35.38
2019-02-28T09:31:53.901Z,34.88
2019-02-28T09:32:53.281Z,35.98
2019-02-28T09:33:55.446Z,35.48
2019-02-28T09:34:53.235Z,35.68
2019-02-28T09:35:53.200Z,35.58
2019-02-28T09:36:56.699Z,35.48
2019-02-28T09:37:53.232Z,35.58
2019-02-28T09:38:56.968Z,35.98
2019-02-28T09:39:54.234Z,35.58
2019-02-28T09:40:53.153Z,35.68
2019-02-28T09:41:53.216Z,35.48
2019-02-28T09:42:53.124Z,34.08
2019-02-28T09:43:53.155Z,32.58
2019-02-28T09:44:53.110Z,33.29
2019-02-28T09:45:53.145Z,33.29
2019-02-28T09:46:53.075Z,33.39
2019-02-28T09:47:53.076Z,33.01
2019-02-28T09:48:53.047Z,32.71
2019-02-28T09:49:53.062Z,33.21
2019-02-28T09:50:57.926Z,33.01
2019-02-28T09:51:53.023Z,33.33
2019-02-28T09:52:53.009Z,33.12
2019-02-28T09:53:53.025Z,34.53
2019-02-28T09:54:53.013Z,34.34
2019-02-28T09:55:52.981Z,34.34
2019-02-28T09:56:53.005Z,34.05
2019-02-28T09:57:54.750Z,34.14
2019-02-28T09:58:53.000Z,34.26
2019-02-28T09:59:52.940Z,34.36
2019-02-28T10:00:52.934Z,34.36
2019-02-28T10:02:01.088Z,34.46
2019-02-28T10:02:53.165Z,34.56
2019-02-28T10:03:55.473Z,34.36
2019-02-28T10:04:52.888Z,34.98
2019-02-28T10:05:52.891Z,34.88
2019-02-28T10:06:52.863Z,35.18
2019-02-28T10:07:52.865Z,34.67
2019-02-28T10:08:52.851Z,34.38
2019-02-28T10:09:52.864Z,34.17
2019-02-28T10:10:55.892Z,34.49
2019-02-28T10:11:52.834Z,35.39
2019-02-28T10:12:52.812Z,35.10
2019-02-28T10:13:54.098Z,35.30
2019-02-28T10:14:52.778Z,35.10
2019-02-28T10:15:52.814Z,34.99
2019-02-28T10:16:53.396Z,35.60
2019-02-28T10:17:52.743Z,35.39
2019-02-28T10:18:52.747Z,35.50
2019-02-28T10:19:53.067Z,34.99
2019-02-28T10:20:52.736Z,35.19
2019-02-28T10:21:52.719Z,35.50
2019-02-28T10:22:52.695Z,35.39
2019-02-28T10:23:53.451Z,35.60
2019-02-28T10:24:52.681Z,34.88
2019-02-28T10:25:52.765Z,35.50
2019-02-28T10:26:52.671Z,35.30
2019-02-28T10:27:54.482Z,35.50
2019-02-28T10:28:52.646Z,35.19
2019-02-28T10:29:52.617Z,35.69
2019-02-28T10:30:52.630Z,34.98
2019-02-28T10:31:52.690Z,34.88
2019-02-28T10:32:52.612Z,35.48
2019-02-28T10:33:53.165Z,34.58
2019-02-28T10:34:52.568Z,35.58
2019-02-28T10:35:52.583Z,36.28
2019-02-28T10:36:52.558Z,35.68
2019-02-28T10:37:57.197Z,35.58
2019-02-28T10:38:52.516Z,35.98
2019-02-28T10:39:52.512Z,35.78
2019-02-28T10:40:53.298Z,35.68
2019-02-28T10:41:52.497Z,35.38
2019-02-28T10:42:52.483Z,35.58
2019-02-28T10:43:55.800Z,35.68
2019-02-28T10:44:52.478Z,35.28
2019-02-28T10:45:52.456Z,36.20
2019-02-28T10:46:53.793Z,35.68
2019-02-28T10:47:52.439Z,35.58
2019-02-28T10:48:52.407Z,35.89
2019-02-28T10:49:55.417Z,36.48
2019-02-28T10:50:52.483Z,35.80
2019-02-28T10:51:52.411Z,36.18
2019-02-28T10:52:52.371Z,36.00
2019-02-28T10:53:52.355Z,36.10
2019-02-28T10:54:52.378Z,36.30
2019-02-28T10:55:54.457Z,35.60
2019-02-28T10:56:52.337Z,35.80
2019-02-28T10:57:52.358Z,36.00
2019-02-28T10:58:53.807Z,35.51
2019-02-28T10:59:55.025Z,36.40
2019-02-28T11:00:52.351Z,35.89
2019-02-28T11:01:52.330Z,35.91
2019-02-28T11:02:54.054Z,36.32
2019-02-28T11:03:52.744Z,36.32
2019-02-28T11:04:52.301Z,35.51
2019-02-28T11:05:54.282Z,35.50
2019-02-28T11:06:52.232Z,35.61
2019-02-28T11:07:52.231Z,36.92
2019-02-28T11:08:52.241Z,35.82
2019-02-28T11:09:52.248Z,36.11
2019-02-28T11:10:52.231Z,36.40
2019-02-28T11:11:52.208Z,36.41
2019-02-28T11:12:54.336Z,36.82
2019-02-28T11:13:52.179Z,36.72
2019-02-28T11:14:52.143Z,36.82
2019-02-28T11:15:52.226Z,36.82
2019-02-28T11:16:52.112Z,36.72
2019-02-28T11:17:52.109Z,37.60
2019-02-28T11:18:52.142Z,37.22
2019-02-28T11:19:52.912Z,38.10
2019-02-28T11:20:52.097Z,38.70
2019-02-28T11:21:52.082Z,38.81
2019-02-28T11:22:52.050Z,38.51
2019-02-28T11:23:52.044Z,37.80
2019-02-28T11:24:52.115Z,39.40
2019-02-28T11:25:53.060Z,38.79
2019-02-28T11:26:52.046Z,38.89
2019-02-28T11:27:53.723Z,38.68
2019-02-28T11:28:52.000Z,39.17
2019-02-28T11:29:51.981Z,38.87
2019-02-28T11:30:52.032Z,39.17
2019-02-28T11:31:54.189Z,38.77
2019-02-28T11:32:52.058Z,39.25
2019-02-28T11:33:52.519Z,38.75
2019-02-28T11:34:51.939Z,38.95
2019-02-28T11:35:57.835Z,39.45
2019-02-28T11:36:51.910Z,39.15
2019-02-28T11:37:51.934Z,39.23
2019-02-28T11:38:52.518Z,39.23
2019-02-28T11:39:51.900Z,38.93
2019-02-28T11:40:57.303Z,38.73
2019-02-28T11:41:52.614Z,39.33
2019-02-28T11:42:51.843Z,38.81
2019-02-28T11:43:51.836Z,38.91
2019-02-28T11:44:51.834Z,39.01
2019-02-28T11:45:51.855Z,38.91
2019-02-28T11:46:51.851Z,38.11
2019-02-28T11:47:51.788Z,38.11
2019-02-28T11:48:53.952Z,39.01
2019-02-28T11:49:53.815Z,38.11
2019-02-28T11:50:51.844Z,38.20
2019-02-28T11:51:53.149Z,38.70
2019-02-28T11:52:51.770Z,38.71
2019-02-28T11:53:51.775Z,38.59
2019-02-28T11:54:51.708Z,38.20
2019-02-28T11:55:53.397Z,37.70
2019-02-28T11:56:51.827Z,37.99
2019-02-28T11:57:51.725Z,37.79
2019-02-28T11:58:52.655Z,37.49
2019-02-28T11:59:51.727Z,37.79
2019-02-28T12:00:51.642Z,37.19
2019-02-28T12:01:51.646Z,37.19
2019-02-28T12:02:53.475Z,37.59
2019-02-28T12:03:51.617Z,37.88
2019-02-28T12:04:51.604Z,37.70
2019-02-28T12:05:51.682Z,37.49
2019-02-28T12:06:51.636Z,37.77
2019-02-28T12:07:51.995Z,37.58
2019-02-28T12:08:51.601Z,37.58
2019-02-28T12:09:54.680Z,37.58
2019-02-28T12:10:51.542Z,37.27
2019-02-28T12:11:51.546Z,37.18
2019-02-28T12:12:51.519Z,37.88
2019-02-28T12:13:55.124Z,37.58
2019-02-28T12:14:51.518Z,37.27
2019-02-28T12:15:51.569Z,36.88
2019-02-28T12:16:53.605Z,37.16
2019-02-28T12:17:51.494Z,36.86
2019-02-28T12:18:51.884Z,37.48
2019-02-28T12:19:51.456Z,37.36
2019-02-28T12:20:51.436Z,37.36
2019-02-28T12:21:51.442Z,36.56
2019-02-28T12:22:51.421Z,36.56
2019-02-28T12:23:54.318Z,36.36
2019-02-28T12:24:51.389Z,36.76
2019-02-28T12:25:51.380Z,36.76
2019-02-28T12:26:52.716Z,36.66
2019-02-28T12:27:51.380Z,36.56
2019-02-28T12:28:51.360Z,36.56
2019-02-28T12:29:51.423Z,36.56
2019-02-28T12:30:51.377Z,36.76
2019-02-28T12:31:51.357Z,36.74
2019-02-28T12:32:52.583Z,36.86
2019-02-28T12:33:53.443Z,37.24
2019-02-28T12:34:51.310Z,36.74
2019-02-28T12:35:51.302Z,36.04
2019-02-28T12:36:51.344Z,36.15
2019-02-28T12:37:54.032Z,36.24
2019-02-28T12:38:51.249Z,35.94
2019-02-28T12:39:51.244Z,35.74
2019-02-28T12:40:51.217Z,35.94
2019-02-28T12:41:51.244Z,35.64
2019-02-28T12:42:51.224Z,36.15
2019-02-28T12:43:51.226Z,36.13
2019-02-28T12:44:51.190Z,35.94
2019-02-28T12:45:51.214Z,35.63
2019-02-28T12:46:51.172Z,35.64
2019-02-28T12:47:51.215Z,35.74
2019-02-28T12:48:51.148Z,35.93
2019-02-28T12:49:51.198Z,35.83
2019-02-28T12:50:51.185Z,35.93
2019-02-28T12:51:51.130Z,35.83
2019-02-28T12:52:51.091Z,35.83
2019-02-28T12:53:51.102Z,35.53
2019-02-28T12:54:51.082Z,35.83
2019-02-28T12:55:51.062Z,36.02
2019-02-28T12:56:51.073Z,36.13
2019-02-28T12:57:51.742Z,36.02
2019-02-28T12:58:51.264Z,36.43
2019-02-28T12:59:51.089Z,35.83
2019-02-28T13:00:51.032Z,36.43
2019-02-28T13:01:51.003Z,35.93
2019-02-28T13:02:50.998Z,35.71
2019-02-28T13:03:54.675Z,35.72
2019-02-28T13:04:50.978Z,36.43
2019-02-28T13:05:50.955Z,36.02
2019-02-28T13:06:50.957Z,36.13
2019-02-28T13:07:50.975Z,36.43